Time;durP1;ratioP1;P1;durP2;ratioP2;P2;SDS_P1;SDS_P2;PMS_P1;PMS_P2;Temp;Humidity;BMP_temperature;BMP_pressure;BME280_temperature;BME280_humidity;BME280_pressure;Samples;Min_cycle;Max_cycle;Signal;HPM_P1;HPM_P2
2022/08/21 00:01:31;;;;;;;4.75;1.08;;;;;;;;;;5064783;28;20048;-77
2022/08/21 00:03:57;;;;;;;2.53;1.23;;;;;;;;;;5070763;28;20051;-77
2022/08/21 00:06:24;;;;;;;8.73;1.63;;;;;;;;;;5067144;28;20045;-77
2022/08/21 00:08:50;;;;;;;5.47;1.23;;;;;;;;;;5073451;28;20105;-77
2022/08/21 00:11:16;;;;;;;5.75;1.70;;;;;;;;;;5072185;28;20471;-77
2022/08/21 00:13:43;;;;;;;5.40;1.48;;;;;;;;;;5073038;28;20040;-77
2022/08/21 00:16:09;;;;;;;5.25;1.35;;;;;;;;;;5072720;28;20029;-77
2022/08/21 00:18:35;;;;;;;3.95;1.00;;;;;;;;;;5064728;28;20033;-77
2022/08/21 00:21:01;;;;;;;5.00;1.10;;;;;;;;;;5062633;28;20063;-77
2022/08/21 00:23:27;;;;;;;3.00;1.25;;;;;;;;;;5059853;28;20372;-77
2022/08/21 00:25:53;;;;;;;4.60;1.00;;;;;;;;;;5073285;28;20040;-77
2022/08/21 00:28:19;;;;;;;3.05;1.20;;;;;;;;;;5065910;28;20028;-77
2022/08/21 00:30:45;;;;;;;4.65;1.17;;;;;;;;;;5071462;28;20037;-77
2022/08/21 00:33:12;;;;;;;2.55;0.98;;;;;;;;;;5067188;28;20909;-77
2022/08/21 00:35:38;;;;;;;3.22;1.00;;;;;;;;;;5068574;28;20037;-77
2022/08/21 00:38:05;;;;;;;3.80;1.23;;;;;;;;;;5065758;28;20024;-77
2022/08/21 00:40:34;;;;;;;4.85;1.63;;;;;;;;;;5072211;28;20051;-77
2022/08/21 00:43:02;;;;;;;4.75;1.63;;;;;;;;;;5063085;28;20072;-77
2022/08/21 00:45:29;;;;;;;6.47;1.33;;;;;;;;;;5069300;28;20029;-76
2022/08/21 00:47:56;;;;;;;5.43;1.08;;;;;;;;;;5067312;28;20051;-77
2022/08/21 00:50:22;;;;;;;2.63;1.40;;;;;;;;;;5066125;28;20108;-77
2022/08/21 00:52:51;;;;;;;6.32;1.42;;;;;;;;;;5073014;28;20028;-77
2022/08/21 00:55:17;;;;;;;2.05;1.13;;;;;;;;;;5072201;28;20032;-77
2022/08/21 00:57:50;;;;;;;5.18;1.83;;;;;;;;;;5062776;28;20040;-77
2022/08/21 01:00:18;;;;;;;2.60;1.00;;;;;;;;;;5071111;28;20063;-77
2022/08/21 01:02:44;;;;;;;2.22;1.02;;;;;;;;;;5058523;28;20381;-77
2022/08/21 01:05:11;;;;;;;5.05;1.35;;;;;;;;;;5071262;28;20028;-77
2022/08/21 01:07:37;;;;;;;5.28;1.25;;;;;;;;;;5069584;28;20033;-77
2022/08/21 01:10:05;;;;;;;2.50;0.98;;;;;;;;;;5064519;28;20067;-77
2022/08/21 01:12:31;;;;;;;1.60;0.80;;;;;;;;;;5063725;28;20043;-77
2022/08/21 01:14:58;;;;;;;4.20;0.80;;;;;;;;;;5067382;28;20056;-77
2022/08/21 01:17:24;;;;;;;2.10;0.88;;;;;;;;;;5068178;28;20037;-77
2022/08/21 01:19:50;;;;;;;3.92;1.10;;;;;;;;;;5071827;28;20534;-77
2022/08/21 01:22:16;;;;;;;2.80;1.15;;;;;;;;;;5072012;28;20072;-77
2022/08/21 01:24:42;;;;;;;3.30;1.00;;;;;;;;;;5071623;28;20134;-77
2022/08/21 01:27:08;;;;;;;2.45;1.08;;;;;;;;;;5071836;28;20035;-77
2022/08/21 01:29:47;;;;;;;3.92;1.38;;;;;;;;;;5070449;28;20032;-77
2022/08/21 01:32:15;;;;;;;3.67;1.13;;;;;;;;;;5071843;28;20493;-77
2022/08/21 01:34:42;;;;;;;4.78;1.30;;;;;;;;;;5062114;28;20037;-77
2022/08/21 01:37:08;;;;;;;3.08;0.98;;;;;;;;;;5068115;28;20036;-77
2022/08/21 01:39:35;;;;;;;2.88;1.27;;;;;;;;;;5070919;28;20092;-77
2022/08/21 01:42:01;;;;;;;4.35;1.20;;;;;;;;;;5063785;28;20037;-77
2022/08/21 01:44:27;;;;;;;4.68;1.20;;;;;;;;;;5063055;28;20132;-77
2022/08/21 01:46:53;;;;;;;5.30;1.10;;;;;;;;;;5069715;28;20032;-77
2022/08/21 01:49:20;;;;;;;3.38;1.40;;;;;;;;;;5068930;28;20480;-77
2022/08/21 01:51:46;;;;;;;4.82;2.05;;;;;;;;;;5063250;28;20037;-77
2022/08/21 01:54:12;;;;;;;3.65;1.73;;;;;;;;;;5071879;28;20064;-77
2022/08/21 01:56:39;;;;;;;4.63;1.45;;;;;;;;;;5068392;28;20025;-77
2022/08/21 01:59:05;;;;;;;4.20;1.30;;;;;;;;;;5067784;28;20036;-77
2022/08/21 02:01:31;;;;;;;5.60;1.30;;;;;;;;;;5070944;28;20055;-77
2022/08/21 02:03:59;;;;;;;5.38;1.33;;;;;;;;;;5071360;28;20082;-77
2022/08/21 02:06:25;;;;;;;3.63;1.23;;;;;;;;;;5067522;28;20063;-77
2022/08/21 02:08:51;;;;;;;3.88;1.35;;;;;;;;;;5065338;28;20036;-77
2022/08/21 02:11:18;;;;;;;5.07;1.42;;;;;;;;;;5057948;28;20533;-77
2022/08/21 02:13:44;;;;;;;6.45;1.70;;;;;;;;;;5060480;28;20037;-77
2022/08/21 02:16:10;;;;;;;5.15;1.50;;;;;;;;;;5071371;28;20028;-77
2022/08/21 02:18:36;;;;;;;4.38;1.13;;;;;;;;;;5066232;28;20032;-77
2022/08/21 02:21:03;;;;;;;3.95;1.55;;;;;;;;;;5070692;28;20040;-77
2022/08/21 02:23:29;;;;;;;8.63;1.30;;;;;;;;;;5065276;28;20086;-77
2022/08/21 02:25:57;;;;;;;5.88;1.80;;;;;;;;;;5068390;28;20122;-77
2022/08/21 02:28:23;;;;;;;3.28;1.45;;;;;;;;;;5067680;28;20391;-77
2022/08/21 02:30:50;;;;;;;4.25;1.20;;;;;;;;;;5071024;28;20037;-77
2022/08/21 02:33:16;;;;;;;1.60;0.90;;;;;;;;;;5070904;28;20029;-77
2022/08/21 02:35:43;;;;;;;5.50;1.00;;;;;;;;;;5068799;28;20032;-77
2022/08/21 02:38:12;;;;;;;1.77;0.90;;;;;;;;;;5067693;28;20142;-77
2022/08/21 02:40:39;;;;;;;2.10;0.93;;;;;;;;;;5068452;28;20440;-77
2022/08/21 02:43:06;;;;;;;2.40;0.98;;;;;;;;;;5070679;28;20044;-77
2022/08/21 02:45:33;;;;;;;3.78;1.20;;;;;;;;;;5064671;28;20029;-77
2022/08/21 02:48:00;;;;;;;2.95;0.98;;;;;;;;;;5060705;28;20040;-77
2022/08/21 02:50:28;;;;;;;5.30;1.33;;;;;;;;;;5070099;28;20029;-77
2022/08/21 02:52:55;;;;;;;4.95;1.30;;;;;;;;;;5069976;28;20040;-77
2022/08/21 02:55:22;;;;;;;3.00;1.10;;;;;;;;;;5052998;28;20025;-77
2022/08/21 02:57:48;;;;;;;2.75;1.20;;;;;;;;;;5060577;28;20041;-77
2022/08/21 03:00:15;;;;;;;2.63;1.10;;;;;;;;;;5068318;28;20436;-76
2022/08/21 03:02:41;;;;;;;2.75;1.10;;;;;;;;;;5065413;28;20124;-77
2022/08/21 03:05:09;;;;;;;4.25;1.17;;;;;;;;;;5066419;28;20063;-77
2022/08/21 03:07:36;;;;;;;5.13;1.20;;;;;;;;;;5069994;28;20028;-77
2022/08/21 03:10:03;;;;;;;2.60;0.82;;;;;;;;;;5069018;28;20028;-77
2022/08/21 03:12:29;;;;;;;6.32;1.35;;;;;;;;;;5068143;28;20036;-77
2022/08/21 03:14:55;;;;;;;4.80;1.30;;;;;;;;;;5068628;28;20829;-77
2022/08/21 03:17:21;;;;;;;4.55;1.60;;;;;;;;;;5065013;28;20044;-77
2022/08/21 03:19:47;;;;;;;5.28;1.40;;;;;;;;;;5069401;28;20132;-77
2022/08/21 03:22:13;;;;;;;3.40;1.30;;;;;;;;;;5067575;28;20040;-77
2022/08/21 03:24:39;;;;;;;3.65;0.90;;;;;;;;;;5072688;28;20025;-77
2022/08/21 03:27:05;;;;;;;3.90;1.10;;;;;;;;;;5070800;28;20420;-77
2022/08/21 03:29:31;;;;;;;8.07;1.75;;;;;;;;;;5072874;28;20103;-77
2022/08/21 03:31:57;;;;;;;4.70;0.95;;;;;;;;;;5073318;28;20824;-77
2022/08/21 03:34:23;;;;;;;3.97;1.27;;;;;;;;;;5073026;28;20029;-77
2022/08/21 03:36:49;;;;;;;2.85;1.00;;;;;;;;;;5073805;28;20029;-77
2022/08/21 03:39:17;;;;;;;3.17;1.00;;;;;;;;;;5073248;28;20047;-77
2022/08/21 03:41:43;;;;;;;5.22;1.45;;;;;;;;;;5073292;28;20051;-76
2022/08/21 03:44:09;;;;;;;1.67;0.90;;;;;;;;;;5065375;28;20033;-77
2022/08/21 03:46:35;;;;;;;3.50;1.25;;;;;;;;;;5070920;28;20699;-77
2022/08/21 03:49:01;;;;;;;4.20;0.80;;;;;;;;;;5073835;28;20050;-77
2022/08/21 03:51:27;;;;;;;5.95;1.20;;;;;;;;;;5073256;28;20028;-77
2022/08/21 03:53:54;;;;;;;6.00;1.20;;;;;;;;;;5074070;28;20358;-77
2022/08/21 03:56:20;;;;;;;3.35;0.90;;;;;;;;;;5068831;28;20432;-77
2022/08/21 03:58:46;;;;;;;4.47;1.27;;;;;;;;;;5074031;28;20032;-77
2022/08/21 04:01:12;;;;;;;4.05;1.05;;;;;;;;;;5070299;28;20032;-77
2022/08/21 04:03:38;;;;;;;3.55;1.70;;;;;;;;;;5073775;28;20040;-77
2022/08/21 04:06:04;;;;;;;2.88;1.13;;;;;;;;;;5071172;28;20033;-77
2022/08/21 04:08:30;;;;;;;4.80;1.52;;;;;;;;;;5072763;28;20024;-77
2022/08/21 04:10:58;;;;;;;3.45;1.30;;;;;;;;;;5070103;28;20082;-77
2022/08/21 04:13:24;;;;;;;4.43;1.08;;;;;;;;;;5062157;28;20031;-77
2022/08/21 04:15:50;;;;;;;4.18;1.45;;;;;;;;;;5063843;28;20684;-77
2022/08/21 04:18:17;;;;;;;4.13;1.42;;;;;;;;;;5065142;28;20025;-77
2022/08/21 04:20:43;;;;;;;4.97;1.30;;;;;;;;;;5067554;28;20048;-77
2022/08/21 04:23:09;;;;;;;7.25;1.20;;;;;;;;;;5071540;28;20066;-77
2022/08/21 04:25:35;;;;;;;7.35;1.58;;;;;;;;;;5073603;28;20024;-77
2022/08/21 04:28:01;;;;;;;2.83;1.20;;;;;;;;;;5073404;28;20489;-77
2022/08/21 04:30:28;;;;;;;2.83;1.30;;;;;;;;;;5072801;28;20034;-77
2022/08/21 04:32:54;;;;;;;4.43;1.17;;;;;;;;;;5072498;28;20078;-77
2022/08/21 04:35:21;;;;;;;3.80;1.20;;;;;;;;;;5064436;28;20037;-77
2022/08/21 04:37:48;;;;;;;3.30;0.98;;;;;;;;;;5072946;28;20485;-77
2022/08/21 04:40:15;;;;;;;3.25;1.00;;;;;;;;;;5072395;28;20178;-77
2022/08/21 04:43:08;;;;;;;2.13;0.82;;;;;;;;;;5072982;28;20044;-77
2022/08/21 04:45:39;;;;;;;6.05;1.17;;;;;;;;;;5060679;28;20417;-77
2022/08/21 04:48:06;;;;;;;2.97;1.17;;;;;;;;;;5068611;28;20441;-77
2022/08/21 04:50:38;;;;;;;4.35;1.00;;;;;;;;;;5062863;28;20032;-77
2022/08/21 04:53:09;;;;;;;5.07;0.90;;;;;;;;;;5072542;28;20036;-77
2022/08/21 04:55:36;;;;;;;9.52;1.15;;;;;;;;;;5073042;28;20470;-77
2022/08/21 04:58:02;;;;;;;6.32;1.10;;;;;;;;;;5059520;28;20071;-77
2022/08/21 05:00:29;;;;;;;3.58;1.35;;;;;;;;;;5070814;28;20055;-77
2022/08/21 05:02:58;;;;;;;5.72;1.27;;;;;;;;;;5072090;28;20055;-77
2022/08/21 05:05:25;;;;;;;4.63;1.15;;;;;;;;;;5070850;28;20017;-77
2022/08/21 05:07:52;;;;;;;4.13;1.15;;;;;;;;;;5069397;28;20135;-77
2022/08/21 05:10:18;;;;;;;4.38;1.52;;;;;;;;;;5063202;28;20028;-77
2022/08/21 05:12:44;;;;;;;3.92;1.23;;;;;;;;;;5060279;28;20075;-77
2022/08/21 05:15:14;;;;;;;7.30;1.20;;;;;;;;;;5071594;28;20029;-77
2022/08/21 05:17:41;;;;;;;5.72;1.30;;;;;;;;;;5071510;28;20068;-77
2022/08/21 05:20:08;;;;;;;6.35;1.13;;;;;;;;;;5072676;28;20044;-77
2022/08/21 05:22:34;;;;;;;4.05;1.10;;;;;;;;;;5072219;28;20692;-77
2022/08/21 05:25:00;;;;;;;3.17;1.23;;;;;;;;;;5072147;28;20027;-77
2022/08/21 05:27:29;;;;;;;2.97;0.82;;;;;;;;;;5071780;28;20115;-77
2022/08/21 05:29:55;;;;;;;1.92;0.90;;;;;;;;;;5050744;28;20450;-77
2022/08/21 05:32:21;;;;;;;3.08;0.93;;;;;;;;;;5070591;28;20043;-77
2022/08/21 05:34:47;;;;;;;6.03;1.00;;;;;;;;;;5071376;28;20032;-77
2022/08/21 05:37:13;;;;;;;7.43;1.40;;;;;;;;;;5070598;28;21007;-77
2022/08/21 05:39:39;;;;;;;3.22;1.35;;;;;;;;;;5070013;28;20036;-77
2022/08/21 05:42:05;;;;;;;3.63;1.00;;;;;;;;;;5066621;28;20071;-77
2022/08/21 05:44:31;;;;;;;3.45;1.00;;;;;;;;;;5063308;28;20786;-77
2022/08/21 05:47:03;;;;;;;3.65;1.40;;;;;;;;;;5059842;28;20040;-77
2022/08/21 05:49:29;;;;;;;2.78;1.10;;;;;;;;;;5056852;28;20028;-77
2022/08/21 05:51:55;;;;;;;5.32;1.20;;;;;;;;;;5069662;28;20488;-77
2022/08/21 05:54:21;;;;;;;2.65;1.00;;;;;;;;;;5071549;28;20024;-77
2022/08/21 05:56:47;;;;;;;1.83;1.00;;;;;;;;;;5064691;28;20028;-77
2022/08/21 05:59:13;;;;;;;4.28;0.93;;;;;;;;;;5060534;28;20043;-77
2022/08/21 06:01:40;;;;;;;2.75;1.15;;;;;;;;;;5066553;28;20104;-77
2022/08/21 06:04:06;;;;;;;5.88;1.00;;;;;;;;;;5070584;28;20043;-77
2022/08/21 06:06:32;;;;;;;3.63;1.00;;;;;;;;;;5065918;28;20052;-77
2022/08/21 06:08:59;;;;;;;2.95;1.00;;;;;;;;;;5068310;28;20031;-77
2022/08/21 06:11:25;;;;;;;4.53;0.90;;;;;;;;;;5070416;28;20040;-77
2022/08/21 06:13:51;;;;;;;5.22;0.90;;;;;;;;;;5066426;28;20033;-77
2022/08/21 06:16:17;;;;;;;2.92;0.93;;;;;;;;;;5057282;28;20043;-77
2022/08/21 06:18:44;;;;;;;6.63;1.10;;;;;;;;;;5069385;28;20324;-77
2022/08/21 06:21:11;;;;;;;3.05;0.93;;;;;;;;;;5061707;28;20028;-77
2022/08/21 06:23:37;;;;;;;4.53;0.82;;;;;;;;;;5069981;28;20035;-77
2022/08/21 06:26:04;;;;;;;3.42;1.10;;;;;;;;;;5069898;28;20396;-77
2022/08/21 06:28:31;;;;;;;1.95;0.98;;;;;;;;;;5059228;28;20021;-77
2022/08/21 06:30:57;;;;;;;2.38;0.90;;;;;;;;;;5069412;28;20028;-77
2022/08/21 06:33:23;;;;;;;5.70;0.88;;;;;;;;;;5057842;28;20624;-77
2022/08/21 06:35:50;;;;;;;3.42;0.85;;;;;;;;;;5063996;28;20036;-77
2022/08/21 06:38:16;;;;;;;2.35;0.90;;;;;;;;;;5069750;28;20035;-77
2022/08/21 06:40:42;;;;;;;3.17;0.75;;;;;;;;;;5066884;28;20759;-77
2022/08/21 06:43:13;;;;;;;2.97;1.00;;;;;;;;;;5070809;28;20060;-77
2022/08/21 06:45:39;;;;;;;3.83;1.10;;;;;;;;;;5059488;28;20060;-77
2022/08/21 06:48:06;;;;;;;3.92;0.98;;;;;;;;;;5061708;28;20533;-77
2022/08/21 06:50:33;;;;;;;3.78;0.70;;;;;;;;;;5069185;28;20043;-77
2022/08/21 06:53:04;;;;;;;3.55;0.90;;;;;;;;;;5070236;28;20028;-77
2022/08/21 06:55:30;;;;;;;3.10;1.00;;;;;;;;;;5066916;28;20448;-77
2022/08/21 06:57:56;;;;;;;2.85;0.95;;;;;;;;;;5069728;28;20640;-77
2022/08/21 07:00:22;;;;;;;3.60;0.80;;;;;;;;;;5071838;28;20033;-77
2022/08/21 07:02:49;;;;;;;2.33;0.95;;;;;;;;;;5078089;28;20477;-77
2022/08/21 07:05:15;;;;;;;4.22;0.85;;;;;;;;;;5075922;28;20032;-77
2022/08/21 07:07:41;;;;;;;3.22;0.93;;;;;;;;;;5070186;28;20036;-77
2022/08/21 07:10:07;;;;;;;4.78;1.13;;;;;;;;;;5067002;28;20021;-77
2022/08/21 07:12:33;;;;;;;3.95;0.90;;;;;;;;;;5070727;28;20648;-77
2022/08/21 07:14:59;;;;;;;2.83;0.80;;;;;;;;;;5072727;28;20465;-77
2022/08/21 07:17:25;;;;;;;3.20;1.00;;;;;;;;;;5069300;28;20036;-78
2022/08/21 07:19:51;;;;;;;3.33;0.77;;;;;;;;;;5071009;28;20040;-77
2022/08/21 07:22:19;;;;;;;2.70;0.77;;;;;;;;;;5071060;28;20063;-77
2022/08/21 07:24:45;;;;;;;2.13;0.80;;;;;;;;;;5065655;28;20115;-77
2022/08/21 07:27:11;;;;;;;2.17;0.82;;;;;;;;;;5070904;28;20100;-77
2022/08/21 07:29:37;;;;;;;1.60;0.80;;;;;;;;;;5068378;28;20039;-77
2022/08/21 07:32:03;;;;;;;3.33;0.80;;;;;;;;;;5073185;28;20858;-77
2022/08/21 07:34:29;;;;;;;4.40;1.20;;;;;;;;;;5072310;28;20074;-77
2022/08/21 07:36:55;;;;;;;4.78;0.90;;;;;;;;;;5069974;28;20028;-77
2022/08/21 07:39:22;;;;;;;1.88;0.90;;;;;;;;;;5065014;28;20032;-77
2022/08/21 07:41:48;;;;;;;2.28;1.10;;;;;;;;;;5072603;28;20577;-77
2022/08/21 07:44:14;;;;;;;4.13;0.63;;;;;;;;;;5079578;28;20636;-77
2022/08/21 07:46:40;;;;;;;4.38;0.90;;;;;;;;;;5068484;28;20112;-77
2022/08/21 07:49:06;;;;;;;3.42;0.70;;;;;;;;;;5064283;28;20392;-77
2022/08/21 07:51:33;;;;;;;4.75;0.90;;;;;;;;;;5074255;28;20032;-77
2022/08/21 07:53:59;;;;;;;4.43;1.23;;;;;;;;;;5070884;28;20029;-77
2022/08/21 07:56:26;;;;;;;2.35;0.80;;;;;;;;;;5071031;28;20047;-77
2022/08/21 07:58:52;;;;;;;2.70;0.80;;;;;;;;;;5071059;28;20389;-78
2022/08/21 08:01:19;;;;;;;2.75;0.80;;;;;;;;;;5075286;28;20528;-77
2022/08/21 08:03:45;;;;;;;3.35;0.88;;;;;;;;;;5070352;28;20524;-77
2022/08/21 08:06:12;;;;;;;5.43;0.75;;;;;;;;;;5070121;28;20025;-77
2022/08/21 08:08:43;;;;;;;6.53;1.05;;;;;;;;;;5065330;28;20027;-77
2022/08/21 08:11:15;;;;;;;3.00;0.90;;;;;;;;;;5065099;28;20064;-78
2022/08/21 08:13:46;;;;;;;2.05;0.77;;;;;;;;;;5065657;28;20024;-77
2022/08/21 08:16:12;;;;;;;3.40;0.77;;;;;;;;;;5075866;28;20044;-77
2022/08/21 08:18:38;;;;;;;3.65;0.95;;;;;;;;;;5060784;28;20059;-78
2022/08/21 08:21:05;;;;;;;2.63;0.88;;;;;;;;;;5066393;28;20546;-77
2022/08/21 08:23:31;;;;;;;1.58;0.70;;;;;;;;;;5059987;28;20440;-77
2022/08/21 08:25:58;;;;;;;1.02;0.70;;;;;;;;;;5071100;28;20504;-77
2022/08/21 08:28:24;;;;;;;3.40;0.80;;;;;;;;;;5068735;28;20047;-77
2022/08/21 08:30:52;;;;;;;3.63;0.70;;;;;;;;;;5072429;28;20033;-77
2022/08/21 08:33:18;;;;;;;1.67;0.80;;;;;;;;;;5061992;28;20053;-77
2022/08/21 08:35:45;;;;;;;2.15;0.70;;;;;;;;;;5061460;28;20032;-77
2022/08/21 08:38:11;;;;;;;4.53;0.85;;;;;;;;;;5067305;28;20067;-77
2022/08/21 08:40:37;;;;;;;3.10;0.85;;;;;;;;;;5068961;28;20111;-77
2022/08/21 08:43:05;;;;;;;1.45;0.75;;;;;;;;;;5061492;28;20037;-76
2022/08/21 08:45:32;;;;;;;2.88;0.88;;;;;;;;;;5068420;28;20108;-77
2022/08/21 08:48:03;;;;;;;1.85;0.93;;;;;;;;;;5070938;28;20043;-77
2022/08/21 08:50:41;;;;;;;2.33;0.80;;;;;;;;;;5072696;28;20523;-77
2022/08/21 08:53:19;;;;;;;2.05;0.90;;;;;;;;;;5066545;28;20036;-77
2022/08/21 08:55:46;;;;;;;2.75;1.13;;;;;;;;;;5071303;28;20351;-77
2022/08/21 08:58:14;;;;;;;1.88;0.90;;;;;;;;;;5077533;28;20040;-77
2022/08/21 09:00:40;;;;;;;1.95;0.88;;;;;;;;;;5072971;28;20762;-78
2022/08/21 09:03:06;;;;;;;4.55;1.10;;;;;;;;;;5070942;28;20027;-77
2022/08/21 09:05:43;;;;;;;1.45;0.70;;;;;;;;;;5062669;28;20513;-76
2022/08/21 09:08:15;;;;;;;3.78;1.20;;;;;;;;;;5065863;28;20056;-77
2022/08/21 09:10:47;;;;;;;4.28;0.90;;;;;;;;;;5065280;28;20039;-77
2022/08/21 09:13:16;;;;;;;2.30;0.90;;;;;;;;;;5070285;28;20024;-77
2022/08/21 09:15:58;;;;;;;2.03;0.77;;;;;;;;;;5069954;28;20032;-77
2022/08/21 09:18:24;;;;;;;3.08;0.90;;;;;;;;;;5066642;28;20648;-77
2022/08/21 09:21:09;;;;;;;3.58;0.80;;;;;;;;;;5065566;28;20107;-77
2022/08/21 09:23:35;;;;;;;4.53;0.90;;;;;;;;;;5064942;28;20390;-77
2022/08/21 09:26:07;;;;;;;4.50;0.90;;;;;;;;;;5073180;28;20169;-77
2022/08/21 09:28:34;;;;;;;2.55;0.75;;;;;;;;;;5064818;28;20158;-77
2022/08/21 09:31:02;;;;;;;2.00;0.82;;;;;;;;;;5071103;28;20060;-77
2022/08/21 09:33:28;;;;;;;3.60;0.82;;;;;;;;;;5074362;28;20032;-77
2022/08/21 09:35:58;;;;;;;1.42;0.88;;;;;;;;;;5067762;28;20151;-77
2022/08/21 09:38:26;;;;;;;2.05;0.85;;;;;;;;;;5068598;28;20028;-77
2022/08/21 09:40:56;;;;;;;4.18;0.73;;;;;;;;;;5069824;28;20084;-77
2022/08/21 09:43:25;;;;;;;5.15;0.80;;;;;;;;;;5060425;28;20037;-77
2022/08/21 09:46:02;;;;;;;2.65;0.77;;;;;;;;;;5057852;28;20064;-78
2022/08/21 09:48:29;;;;;;;2.05;0.75;;;;;;;;;;5073082;28;20039;-77
2022/08/21 09:51:05;;;;;;;5.50;0.90;;;;;;;;;;5068715;28;20066;-77
2022/08/21 09:53:32;;;;;;;2.65;0.80;;;;;;;;;;5065206;28;20029;-77
2022/08/21 09:58:51;;;;;;;2.15;0.70;;;;;;;;;;5070596;28;20047;-77
2022/08/21 10:01:19;;;;;;;1.80;0.73;;;;;;;;;;5067998;28;20880;-77
2022/08/21 10:03:46;;;;;;;2.17;0.70;;;;;;;;;;5068466;28;20587;-77
2022/08/21 10:06:21;;;;;;;1.73;0.60;;;;;;;;;;5065596;28;20614;-77
2022/08/21 10:08:48;;;;;;;1.08;0.60;;;;;;;;;;5065600;28;20067;-77
2022/08/21 10:11:15;;;;;;;1.90;0.60;;;;;;;;;;5060195;28;20132;-77
2022/08/21 10:13:52;;;;;;;2.78;0.70;;;;;;;;;;5062093;28;20563;-77
2022/08/21 10:16:18;;;;;;;2.55;0.65;;;;;;;;;;5067309;28;20029;-77
2022/08/21 10:18:44;;;;;;;1.67;0.60;;;;;;;;;;5066919;28;20071;-77
2022/08/21 10:21:21;;;;;;;2.78;0.52;;;;;;;;;;5066787;28;20424;-77
2022/08/21 10:24:06;;;;;;;1.80;0.63;;;;;;;;;;5069175;28;20039;-78
2022/08/21 10:26:45;;;;;;;1.20;0.60;;;;;;;;;;5069203;28;20072;-78
2022/08/21 10:29:24;;;;;;;3.55;0.70;;;;;;;;;;5056492;28;20112;-77
2022/08/21 10:31:50;;;;;;;1.98;0.60;;;;;;;;;;5063089;28;20095;-77
2022/08/21 10:34:23;;;;;;;1.90;0.63;;;;;;;;;;5064266;28;21008;-78
2022/08/21 10:36:49;;;;;;;1.00;0.60;;;;;;;;;;5060971;28;20037;-77
2022/08/21 10:39:24;;;;;;;3.95;0.70;;;;;;;;;;5062382;28;20039;-77
2022/08/21 10:41:50;;;;;;;3.55;0.70;;;;;;;;;;5060768;28;20036;-77
2022/08/21 10:44:39;;;;;;;2.05;0.63;;;;;;;;;;5060444;28;20040;-77
2022/08/21 10:47:21;;;;;;;2.13;0.60;;;;;;;;;;5014697;28;20048;-77
2022/08/21 10:49:59;;;;;;;2.63;0.50;;;;;;;;;;5061722;28;20059;-77
2022/08/21 10:52:34;;;;;;;1.10;0.57;;;;;;;;;;5067033;28;20074;-77
2022/08/21 10:55:04;;;;;;;1.02;0.50;;;;;;;;;;5067157;28;20112;-77
2022/08/21 10:57:42;;;;;;;1.65;0.70;;;;;;;;;;5069640;28;20642;-77
2022/08/21 11:00:20;;;;;;;1.98;0.57;;;;;;;;;;5066360;28;20029;-78
2022/08/21 11:03:06;;;;;;;1.23;0.70;;;;;;;;;;5064590;28;20482;-77
2022/08/21 11:05:35;;;;;;;2.75;0.60;;;;;;;;;;5063418;28;20050;-77
2022/08/21 11:08:01;;;;;;;1.90;0.52;;;;;;;;;;5060108;28;20566;-78
2022/08/21 11:10:36;;;;;;;2.38;0.52;;;;;;;;;;5066272;28;20107;-78
2022/08/21 11:13:07;;;;;;;1.42;0.55;;;;;;;;;;5066899;28;20040;-78
2022/08/21 11:15:36;;;;;;;1.40;0.60;;;;;;;;;;5065145;28;20628;-78
2022/08/21 11:18:11;;;;;;;3.22;0.57;;;;;;;;;;5063223;28;20044;-78
2022/08/21 11:20:55;;;;;;;1.13;0.55;;;;;;;;;;5068668;28;20036;-77
2022/08/21 11:23:50;;;;;;;1.90;0.50;;;;;;;;;;5066682;28;20033;-78
2022/08/21 11:26:32;;;;;;;1.83;0.40;;;;;;;;;;5051998;28;20044;-77
2022/08/21 11:29:02;;;;;;;1.63;0.60;;;;;;;;;;5063410;28;20025;-78
2022/08/21 11:31:36;;;;;;;5.93;1.15;;;;;;;;;;5072377;28;20036;-78
2022/08/21 11:34:02;;;;;;;3.42;0.60;;;;;;;;;;5067996;28;20045;-78
2022/08/21 11:36:35;;;;;;;1.25;0.52;;;;;;;;;;5065670;28;20031;-78
2022/08/21 11:39:10;;;;;;;1.95;0.50;;;;;;;;;;5063347;28;20098;-78
2022/08/21 11:41:40;;;;;;;1.98;0.60;;;;;;;;;;5028267;28;20064;-77
2022/08/21 11:44:16;;;;;;;2.03;0.60;;;;;;;;;;5029197;28;20041;-78
2022/08/21 11:46:45;;;;;;;4.28;0.60;;;;;;;;;;5025649;28;20034;-77
2022/08/21 11:49:20;;;;;;;0.90;0.50;;;;;;;;;;5032216;28;20025;-78
2022/08/21 11:51:49;;;;;;;1.00;0.50;;;;;;;;;;5031371;28;20055;-78
2022/08/21 11:54:15;;;;;;;2.65;0.50;;;;;;;;;;5031108;28;20130;-77
2022/08/21 11:56:44;;;;;;;0.40;0.40;;;;;;;;;;5031353;28;20744;-77
2022/08/21 11:59:14;;;;;;;2.90;0.50;;;;;;;;;;5038299;28;20029;-78
2022/08/21 12:01:44;;;;;;;1.23;0.47;;;;;;;;;;5030361;28;20069;-78
2022/08/21 12:04:30;;;;;;;1.73;0.50;;;;;;;;;;5024635;28;20645;-78
2022/08/21 12:06:57;;;;;;;2.20;0.60;;;;;;;;;;5015322;28;20172;-78
2022/08/21 12:09:26;;;;;;;3.88;0.60;;;;;;;;;;5026950;28;20379;-77
2022/08/21 12:12:03;;;;;;;2.70;0.40;;;;;;;;;;5033423;28;20080;-77
2022/08/21 12:14:38;;;;;;;1.55;0.40;;;;;;;;;;5026764;28;20498;-77
2022/08/21 12:17:06;;;;;;;1.73;0.60;;;;;;;;;;5027786;28;20104;-77
2022/08/21 12:19:32;;;;;;;1.23;0.55;;;;;;;;;;5031179;28;20029;-77
2022/08/21 12:21:58;;;;;;;2.25;0.60;;;;;;;;;;5031344;28;20720;-77
2022/08/21 12:24:27;;;;;;;4.28;0.63;;;;;;;;;;5034881;28;20701;-77
2022/08/21 12:26:57;;;;;;;3.42;0.40;;;;;;;;;;5024099;28;20080;-77
2022/08/21 12:29:36;;;;;;;2.05;0.30;;;;;;;;;;5037457;28;20512;-77
2022/08/21 12:32:05;;;;;;;1.02;0.40;;;;;;;;;;5036380;28;20521;-77
2022/08/21 12:34:34;;;;;;;3.53;0.47;;;;;;;;;;5025972;28;20029;-77
2022/08/21 12:37:03;;;;;;;2.42;0.40;;;;;;;;;;5026765;28;20037;-77
2022/08/21 12:39:31;;;;;;;1.95;0.40;;;;;;;;;;5042304;28;20371;-77
2022/08/21 12:42:15;;;;;;;1.02;0.30;;;;;;;;;;5070893;28;20036;-77
2022/08/21 12:44:48;;;;;;;0.77;0.30;;;;;;;;;;5069440;28;20367;-77
2022/08/21 12:47:32;;;;;;;1.17;0.50;;;;;;;;;;5064727;28;20115;-77
2022/08/21 12:50:02;;;;;;;1.65;0.40;;;;;;;;;;5069656;28;20029;-78
2022/08/21 12:52:34;;;;;;;2.35;0.43;;;;;;;;;;5075458;28;20135;-77
2022/08/21 12:55:00;;;;;;;2.05;0.30;;;;;;;;;;5063398;28;20029;-77
2022/08/21 12:57:28;;;;;;;0.60;0.40;;;;;;;;;;5068986;28;20098;-77
2022/08/21 12:59:56;;;;;;;3.25;0.40;;;;;;;;;;5076738;28;20040;-77
2022/08/21 13:02:42;;;;;;;0.70;0.30;;;;;;;;;;5072175;28;20126;-77
2022/08/21 13:05:12;;;;;;;2.85;0.30;;;;;;;;;;5069143;28;20046;-77
2022/08/21 13:07:38;;;;;;;3.17;0.40;;;;;;;;;;5063566;28;20036;-77
2022/08/21 13:10:17;;;;;;;2.40;0.30;;;;;;;;;;5070559;28;20039;-77
2022/08/21 13:12:44;;;;;;;0.75;0.30;;;;;;;;;;5067378;28;20037;-77
2022/08/21 13:15:10;;;;;;;0.50;0.30;;;;;;;;;;5066081;28;20833;-77
2022/08/21 13:17:42;;;;;;;2.97;0.82;;;;;;;;;;5069529;28;20048;-77
2022/08/21 13:20:26;;;;;;;2.97;0.30;;;;;;;;;;5070614;28;20059;-77
2022/08/21 13:22:52;;;;;;;1.25;0.38;;;;;;;;;;5069009;28;20041;-77
2022/08/21 13:25:19;;;;;;;3.35;0.70;;;;;;;;;;5067295;28;20029;-77
2022/08/21 13:27:56;;;;;;;1.13;0.40;;;;;;;;;;5068133;28;20032;-77
2022/08/21 13:30:23;;;;;;;0.93;0.30;;;;;;;;;;5060131;28;20032;-77
2022/08/21 13:32:51;;;;;;;1.20;0.32;;;;;;;;;;5069655;28;20392;-77
2022/08/21 13:35:17;;;;;;;1.80;0.40;;;;;;;;;;5062961;28;20677;-77
2022/08/21 13:37:43;;;;;;;2.47;0.30;;;;;;;;;;5057282;28;20037;-77
2022/08/21 13:40:11;;;;;;;0.60;0.30;;;;;;;;;;5068755;28;20497;-77
2022/08/21 13:42:39;;;;;;;2.13;0.45;;;;;;;;;;5065228;28;20810;-77
2022/08/21 13:45:11;;;;;;;2.05;0.50;;;;;;;;;;5062693;28;20143;-77
2022/08/21 13:47:37;;;;;;;1.23;0.38;;;;;;;;;;5067447;28;20043;-77
2022/08/21 13:50:04;;;;;;;0.63;0.30;;;;;;;;;;5058866;28;20794;-77
2022/08/21 13:52:30;;;;;;;2.25;0.60;;;;;;;;;;5069396;28;20496;-77
2022/08/21 13:55:00;;;;;;;0.50;0.30;;;;;;;;;;5068526;28;20033;-77
2022/08/21 13:57:28;;;;;;;1.80;0.20;;;;;;;;;;5065919;28;20040;-77
2022/08/21 14:00:10;;;;;;;0.73;0.30;;;;;;;;;;5067246;28;20025;-77
2022/08/21 14:02:39;;;;;;;0.70;0.20;;;;;;;;;;5064780;28;20123;-77
2022/08/21 14:05:05;;;;;;;2.42;0.40;;;;;;;;;;5065044;28;20032;-77
2022/08/21 14:07:34;;;;;;;0.88;0.40;;;;;;;;;;5066864;28;20024;-77
2022/08/21 14:10:06;;;;;;;2.65;0.30;;;;;;;;;;5063400;28;20022;-77
2022/08/21 14:12:52;;;;;;;0.55;0.30;;;;;;;;;;5071712;28;21190;-77
2022/08/21 14:15:23;;;;;;;2.08;0.40;;;;;;;;;;5063917;28;20028;-77
2022/08/21 14:17:49;;;;;;;1.02;0.30;;;;;;;;;;5058119;28;20103;-77
2022/08/21 14:20:32;;;;;;;0.68;0.30;;;;;;;;;;5063704;28;20112;-77
2022/08/21 14:22:58;;;;;;;4.10;0.40;;;;;;;;;;5067609;28;20707;-77
2022/08/21 14:25:24;;;;;;;2.67;0.40;;;;;;;;;;5072515;28;20039;-77
2022/08/21 14:27:52;;;;;;;0.90;0.30;;;;;;;;;;5070205;28;20048;-77
2022/08/21 14:30:20;;;;;;;0.75;0.25;;;;;;;;;;5061948;28;20017;-77
2022/08/21 14:32:46;;;;;;;2.70;0.40;;;;;;;;;;5060522;28;20493;-77
2022/08/21 14:35:12;;;;;;;1.80;0.35;;;;;;;;;;5069166;28;20831;-77
2022/08/21 14:37:42;;;;;;;1.27;0.43;;;;;;;;;;5066420;28;20040;-77
2022/08/21 14:40:08;;;;;;;0.93;0.45;;;;;;;;;;5061027;28;20062;-77
2022/08/21 14:42:34;;;;;;;1.00;0.40;;;;;;;;;;5068567;28;20093;-77
2022/08/21 14:45:08;;;;;;;1.25;0.50;;;;;;;;;;5065651;28;20060;-77
2022/08/21 14:47:34;;;;;;;2.00;0.45;;;;;;;;;;5062292;28;20064;-77
2022/08/21 14:50:00;;;;;;;1.75;0.43;;;;;;;;;;5063525;28;20387;-77
2022/08/21 14:52:26;;;;;;;1.55;0.73;;;;;;;;;;5067535;28;20033;-77
2022/08/21 14:54:52;;;;;;;1.30;0.40;;;;;;;;;;5079306;28;20028;-77